Orchard, CO (80649)

6:41 AM MDT on July 28, 2014 (GMT -0600)
Fort Morgan (KFMM) Elev 4570 ft | 40.33 °N, 103.80 °W | Change Station

Current weather conditions updated 6 minutes ago

Clear
Clear
61 °F
Feels Like 61 °F
N
6
Wind Variable Wind from East

Today is forecast to be nearly the same temperature as yesterday.

Today
High -- | Low -- °F
--% Chance of Precip.
Yesterday
High -- | Low -- °F
Precip. -- in
5:50 AM 8:14 PM
New Moon, 2% visible
Pressure 30.32 in
Visibility 10.0 miles
Clouds Clear
Dew Point 57 °F
Humidity 87%
Rainfall 0.00 in
Snow Depth Not available.
UV 0 out of 12
Pollen 6.90 out of 12
Air Quality Not available.
Flu Activity Not available.
METAR KFMM 281235Z AUTO 10005KT 10SM CLR 16/14 A3032 RMK AO2 T01610139 PWINO

More Conditions Fewer Conditions

Pressure 30.32 in
Visibility 10.0 miles
Clouds Clear
Dew Point 57 °F
Humidity 87%
Rainfall 0.00 in
Snow Depth Not available.
UV 0 out of 12
Pollen 6.90 out of 12
Air Quality Not available.
Flu Activity Not available.
METAR KFMM 281235Z AUTO 10005KT 10SM CLR 16/14 A3032 RMK AO2 T01610139 PWINO

More Conditions Fewer Conditions

10-Day Weather Forecast

Almanac

Astronomy

Jul. 28, 2014 Rise Set
Actual Time 5:50 AM MDT 8:14 PM MDT
Civil Twilight 5:19 AM MDT 8:45 PM MDT
Nautical Twilight 4:41 AM MDT 9:23 PM MDT
Astronomical Twilight 3:58 AM MDT 10:06 PM MDT
Moon 7:34 AM MDT 8:57 PM MDT
Length of Visible Light 15h 26m
Length of Day
14h 24m
Tomorrow will be 1m 55s shorter.
New Moon, 2% of the Moon is Illuminated
Today
New Moon
Aug 3
First Quarter
Aug 10
Full
Aug 17
Last Quarter
Aug 25
New

Today's Extremes

State Highs State Lows

Community

WunderPhotos

Upload Photos

1,738,317 photos uploaded!

Nearby

Snow Depth

Station Depth Elevation
Copeland Lake 0 in 8600 ft
Wild Basin 0 in 9560 ft
Niwot 0 in 9910 ft
University Camp 1 in 10300 ft
Bear Lake 0 in 9500 ft

Earthquake Activity

City Distance Mag. Time & Date
No recent earthquake activity has been reported nearby.
Minimum magnitude displayed is 2.5.

Coastal Water Temperatures

Place Temperature
No Stations Reporting

Nearby Weather Stations

Station Location Temp. Dew Point Humidity Wind Precip. Elev Updated Type
8 miles S.E. of, Kersey, CO 60.1 °F 58 °F 91% ESE  at  0.0 mph 0.00 in / hr 4550 ft 6:41 AM MDT Rapid Fire
Fort Morgan, Fort Morgan, CO 65.5 °F 60 °F 83% NE  at  0.0 mph 0.00 in / hr 4327 ft 6:41 AM MDT Rapid Fire
Peace Residence, Roggen, CO 69.1 °F 59 °F 71% SSW  at  4.9 mph 0.00 in / hr 4780 ft 6:41 AM MDT Rapid Fire
Roggen, Roggen, CO 62.3 °F 57 °F 82% SW  at  4.0 mph 0.00 in / hr 4780 ft 6:29 AM MDT Normal

Show More Stations Show Fewer Stations